Ruskin, Nebraska
Current Conditions -  °F | °C
As of 2:35 PM on Monday 22 Dec 2014 (Local Time) from KHJH Reporting Station
Overcast Overcast  
Wind Chill: 41°   Ceiling: 4600
Heat Index: 47°   Visibility: 10mi
Dew Point: 33°   Wind: 17mph
Humidity: 58%   Direction: 320°NW
Pressure: 29.45"   Gusts: 31mph
Location:  40.14°N, 97.87°W
Report Text: KHJH 222035Z AUTO 32015G27KT 10SM SCT034 BKN046 OVC050 09/01 A2945 RMK AO2 T00860007
Loading
Personal Weather Stations






























Interactive Weather Map New forecast layout! Learn more

10-Day Weather Forecast

Advertisements
Track Severe Weather on mobile